Weather at Hollins Bay Airport

Public forecast

Using degrees Celsius for public forecast. Weather courtesy of forecast.io.

Closest aviation weather report (METAR) to Hollins Bay Airport

Closest report is Rockhampton Airport, 70.7 nm (131.0 km) SSE. Retrieved 2022/06/27 10:30 UTC (26 minutes ago):

YBRK 271030Z AUTO 18004KT 9999 // NCD 17/05 Q1022 RF000/0000

Closest aviation forecast (TAF) to Hollins Bay Airport

Closest forecast is Rockhampton Airport, 70.7 nm (131.0 km) SSE. Retrieved 2022/06/27 06:36 UTC (4 hours ago):

TAF YBRK 270456Z 2706/2806 19008KT 9999 FEW025